Time;durP1;ratioP1;P1;durP2;ratioP2;P2;SDS_P1;SDS_P2;PMS_P1;PMS_P2;Temp;Humidity;BMP_temperature;BMP_pressure;BME280_temperature;BME280_humidity;BME280_pressure;Samples;Min_cycle;Max_cycle;Signal;HPM_P1;HPM_P2
2021/09/09 00:02:21;;;;;;;30.83;24.48;;;;;;;14.06;100.00;100815.00;2616947;31;20045;-45
2021/09/09 00:04:49;;;;;;;32.30;22.92;;;;;;;14.02;100.00;100808.94;2615805;31;20339;-43
2021/09/09 00:07:18;;;;;;;27.63;23.27;;;;;;;14.04;100.00;100810.66;2615404;31;20038;-45
2021/09/09 00:09:45;;;;;;;27.40;22.77;;;;;;;13.98;100.00;100811.44;2615372;36;20068;-43
2021/09/09 00:12:12;;;;;;;29.70;24.98;;;;;;;13.95;100.00;100808.81;2615509;31;20049;-43
2021/09/09 00:14:39;;;;;;;29.08;23.55;;;;;;;13.93;100.00;100798.50;2614972;36;20038;-44
2021/09/09 00:17:07;;;;;;;32.20;24.20;;;;;;;13.89;100.00;100803.59;2615175;36;20577;-44
2021/09/09 00:19:34;;;;;;;34.53;22.50;;;;;;;13.84;100.00;100806.09;2615393;36;20030;-48
2021/09/09 00:22:01;;;;;;;29.85;24.58;;;;;;;13.80;100.00;100806.91;2615733;31;20625;-45
2021/09/09 00:24:28;;;;;;;31.10;23.92;;;;;;;13.74;100.00;100799.09;2616422;31;20446;-44
2021/09/09 00:26:55;;;;;;;31.42;23.38;;;;;;;13.70;100.00;100795.59;2614994;36;20042;-45
2021/09/09 00:29:22;;;;;;;29.73;24.45;;;;;;;13.72;100.00;100795.63;2616886;31;20042;-46
2021/09/09 00:31:50;;;;;;;32.08;24.80;;;;;;;13.73;100.00;100800.81;2615603;31;20039;-45
2021/09/09 00:34:17;;;;;;;30.40;23.95;;;;;;;13.66;100.00;100793.81;2614991;36;20037;-44
2021/09/09 00:36:44;;;;;;;31.45;24.55;;;;;;;13.66;100.00;100790.38;2615240;31;20046;-44
2021/09/09 00:39:11;;;;;;;31.30;24.77;;;;;;;13.62;100.00;100786.03;2615205;31;20046;-43
2021/09/09 00:41:38;;;;;;;30.80;24.58;;;;;;;13.56;100.00;100788.53;2617383;31;20039;-46
2021/09/09 00:44:20;;;;;;;30.35;23.45;;;;;;;13.58;100.00;100786.81;2615192;36;20023;-44
2021/09/09 00:46:57;;;;;;;29.40;23.08;;;;;;;13.55;100.00;100787.66;2615895;36;20461;-45
2021/09/09 00:49:24;;;;;;;30.50;23.70;;;;;;;13.58;100.00;100792.84;2615424;36;20426;-44
2021/09/09 00:51:52;;;;;;;32.42;24.95;;;;;;;13.52;100.00;100795.31;2615497;36;20425;-43
2021/09/09 00:54:19;;;;;;;30.38;23.90;;;;;;;13.55;100.00;100789.38;2614450;36;20038;-46
2021/09/09 00:56:48;;;;;;;33.40;24.67;;;;;;;13.51;100.00;100793.59;2614817;36;20574;-45
2021/09/09 00:59:17;;;;;;;35.25;25.23;;;;;;;13.50;100.00;100799.59;2615954;31;20115;-46
2021/09/09 01:01:46;;;;;;;30.60;24.65;;;;;;;13.48;100.00;100788.41;2615089;36;20037;-44
2021/09/09 01:04:14;;;;;;;31.05;24.30;;;;;;;13.40;100.00;100789.97;2616117;31;20038;-44
2021/09/09 01:06:41;;;;;;;33.85;25.88;;;;;;;13.38;100.00;100791.69;2615015;31;20030;-48
2021/09/09 01:09:08;;;;;;;33.88;24.60;;;;;;;13.39;100.00;100788.25;2615394;31;20065;-44
2021/09/09 01:11:35;;;;;;;32.00;24.80;;;;;;;13.36;100.00;100788.22;2615968;31;20034;-44
2021/09/09 01:14:06;;;;;;;31.33;25.35;;;;;;;13.32;100.00;100783.88;2615630;31;20057;-43
2021/09/09 01:16:34;;;;;;;34.17;25.55;;;;;;;13.30;100.00;100786.41;2615760;31;20050;-44
2021/09/09 01:19:01;;;;;;;31.52;24.63;;;;;;;13.23;100.00;100780.31;2616191;31;20033;-43
2021/09/09 01:21:28;;;;;;;43.80;25.63;;;;;;;13.27;100.00;100780.38;2615248;36;20577;-44
2021/09/09 01:23:58;;;;;;;33.90;24.65;;;;;;;13.24;100.00;100784.59;2615182;31;20057;-46
2021/09/09 01:26:27;;;;;;;38.10;25.45;;;;;;;13.18;100.00;100789.63;2615307;31;20030;-44
2021/09/09 01:28:56;;;;;;;35.03;24.77;;;;;;;13.13;100.00;100786.13;2615161;36;20423;-44
2021/09/09 01:31:24;;;;;;;35.92;25.75;;;;;;;13.12;100.00;100783.50;2614784;36;20102;-48
2021/09/09 01:33:55;;;;;;;36.63;26.85;;;;;;;13.06;100.00;100789.41;2615306;31;20026;-44
2021/09/09 01:36:23;;;;;;;34.60;24.92;;;;;;;13.04;100.00;100782.53;2615705;31;20570;-47
2021/09/09 01:38:50;;;;;;;34.88;25.80;;;;;;;13.15;100.00;100781.84;2615767;31;20038;-45
2021/09/09 01:41:17;;;;;;;34.08;26.83;;;;;;;13.06;100.00;100778.25;2615703;31;20034;-43
2021/09/09 01:43:44;;;;;;;32.05;24.75;;;;;;;13.10;100.00;100774.91;2614897;31;20040;-43
2021/09/09 01:46:12;;;;;;;34.88;25.00;;;;;;;13.10;100.00;100773.19;2614169;36;20053;-45
2021/09/09 01:48:39;;;;;;;27.27;23.60;;;;;;;13.09;100.00;100773.19;2614736;31;20037;-45
2021/09/09 01:51:06;;;;;;;28.15;23.52;;;;;;;13.15;100.00;100775.84;2615725;31;20037;-45
2021/09/09 01:53:33;;;;;;;31.13;24.42;;;;;;;13.04;100.00;100777.38;2614723;36;20034;-45
2021/09/09 01:56:01;;;;;;;28.05;23.90;;;;;;;12.96;100.00;100774.66;2616262;31;20495;-44
2021/09/09 01:58:28;;;;;;;30.60;24.60;;;;;;;12.93;100.00;100775.47;2614636;36;20483;-44
2021/09/09 02:00:57;;;;;;;30.48;25.35;;;;;;;12.90;100.00;100769.44;2614519;36;20518;-44
2021/09/09 02:03:27;;;;;;;32.70;24.67;;;;;;;12.86;100.00;100768.50;2615047;36;20554;-46
2021/09/09 02:05:55;;;;;;;31.90;25.75;;;;;;;12.80;100.00;100767.50;2614393;31;20028;-48
2021/09/09 02:08:22;;;;;;;30.67;24.92;;;;;;;12.75;100.00;100768.28;2615152;31;20505;-45
2021/09/09 02:10:49;;;;;;;32.85;24.45;;;;;;;12.72;100.00;100765.69;2614470;31;20031;-46
2021/09/09 02:13:16;;;;;;;31.33;24.67;;;;;;;12.68;100.00;100769.03;2614315;36;20037;-48
2021/09/09 02:15:43;;;;;;;30.40;23.65;;;;;;;12.68;100.00;100770.75;2614419;36;20037;-47
2021/09/09 02:18:10;;;;;;;30.55;23.73;;;;;;;12.68;100.00;100765.59;2614225;36;20030;-45
2021/09/09 02:20:38;;;;;;;31.02;24.05;;;;;;;12.74;100.00;100766.56;2614594;36;20034;-46
2021/09/09 02:23:06;;;;;;;27.75;22.13;;;;;;;12.74;100.00;100763.13;2615695;31;20065;-45
2021/09/09 02:25:33;;;;;;;29.30;23.13;;;;;;;12.72;100.00;100762.25;2614839;31;20057;-46
2021/09/09 02:28:00;;;;;;;29.02;22.92;;;;;;;12.72;100.00;100764.81;2614474;36;20053;-49
2021/09/09 02:30:27;;;;;;;29.45;23.17;;;;;;;12.64;100.00;100756.97;2614579;31;20076;-44
2021/09/09 02:32:54;;;;;;;28.33;23.63;;;;;;;12.60;100.00;100756.88;2615982;31;20038;-47
2021/09/09 02:35:21;;;;;;;39.53;24.50;;;;;;;12.58;100.00;100758.56;2615101;31;20038;-46
2021/09/09 02:37:48;;;;;;;31.10;24.05;;;;;;;12.53;100.00;100760.19;2614522;31;20031;-45
2021/09/09 02:40:16;;;;;;;31.60;23.83;;;;;;;12.48;100.00;100747.28;2614491;36;20022;-47
2021/09/09 02:42:43;;;;;;;30.17;22.70;;;;;;;12.55;100.00;100753.38;2615540;31;20034;-48
2021/09/09 02:45:11;;;;;;;31.48;22.42;;;;;;;12.52;100.00;100749.03;2614515;31;20034;-44
2021/09/09 02:47:38;;;;;;;32.03;22.98;;;;;;;12.47;100.00;100758.34;2618331;31;20023;-45
2021/09/09 02:50:07;;;;;;;29.50;23.95;;;;;;;12.45;100.00;100755.75;2618407;31;20037;-46
2021/09/09 02:52:34;;;;;;;28.65;23.38;;;;;;;12.45;100.00;100758.34;2615343;31;20035;-45
2021/09/09 02:55:02;;;;;;;28.42;22.10;;;;;;;12.36;100.00;100750.44;2615354;36;20045;-46
2021/09/09 02:57:29;;;;;;;30.48;22.65;;;;;;;12.39;100.00;100757.38;2618627;31;20041;-51
2021/09/09 02:59:56;;;;;;;29.10;23.60;;;;;;;12.39;100.00;100741.97;2616848;31;20030;-46
2021/09/09 03:02:25;;;;;;;27.70;23.50;;;;;;;12.36;100.00;100735.03;2615108;31;20038;-45
2021/09/09 03:04:53;;;;;;;28.42;23.67;;;;;;;12.33;100.00;100739.25;2614902;31;20038;-46
2021/09/09 03:07:20;;;;;;;31.67;23.35;;;;;;;12.30;100.00;100740.06;2614312;36;20026;-47
2021/09/09 03:09:47;;;;;;;29.60;23.75;;;;;;;12.30;100.00;100739.22;2614348;36;20050;-47
2021/09/09 03:12:14;;;;;;;29.70;23.52;;;;;;;12.27;100.00;100734.00;2614131;36;20030;-45
2021/09/09 03:14:41;;;;;;;34.00;24.25;;;;;;;12.33;100.00;100736.69;2615091;36;20039;-45
2021/09/09 03:17:10;;;;;;;35.55;23.17;;;;;;;12.28;100.00;100731.47;2614876;36;20042;-44
2021/09/09 03:19:40;;;;;;;30.15;24.35;;;;;;;12.22;100.00;100721.09;2615309;31;20038;-47
2021/09/09 03:22:08;;;;;;;34.20;25.42;;;;;;;12.19;100.00;100721.88;2615260;36;20038;-47
2021/09/09 03:24:35;;;;;;;35.03;25.70;;;;;;;12.14;100.00;100727.75;2615246;36;20046;-48
2021/09/09 03:27:03;;;;;;;33.60;24.75;;;;;;;12.18;100.00;100729.56;2615879;31;20434;-47
2021/09/09 03:29:30;;;;;;;39.08;26.38;;;;;;;12.14;100.00;100726.06;2614603;36;20649;-48
2021/09/09 03:31:57;;;;;;;41.05;25.70;;;;;;;12.11;100.00;100722.56;2618078;31;20458;-48
2021/09/09 03:34:24;;;;;;;33.58;24.52;;;;;;;12.12;100.00;100724.31;2615449;36;20030;-44
2021/09/09 03:36:51;;;;;;;38.92;25.80;;;;;;;12.07;100.00;100719.09;2615470;36;20035;-47
2021/09/09 03:39:18;;;;;;;38.78;26.05;;;;;;;12.05;100.00;100723.31;2614935;36;20039;-48
2021/09/09 03:41:45;;;;;;;35.38;25.65;;;;;;;12.01;100.00;100710.38;2615184;31;20045;-45
2021/09/09 03:44:12;;;;;;;32.17;23.92;;;;;;;11.99;100.00;100715.50;2616020;31;20038;-48
2021/09/09 03:46:39;;;;;;;31.80;24.42;;;;;;;12.01;100.00;100716.38;2614920;36;20048;-44
2021/09/09 03:49:07;;;;;;;33.88;25.15;;;;;;;12.01;100.00;100708.66;2614610;31;20031;-46
2021/09/09 03:51:35;;;;;;;34.15;24.13;;;;;;;12.00;100.00;100712.09;2614415;31;20030;-48
2021/09/09 03:54:05;;;;;;;33.28;24.17;;;;;;;12.00;100.00;100703.53;2614794;36;20034;-47
2021/09/09 03:56:33;;;;;;;30.08;24.08;;;;;;;12.00;100.00;100701.81;2614121;36;20035;-46
2021/09/09 03:59:02;;;;;;;30.20;24.27;;;;;;;12.05;100.00;100704.47;2615453;31;20558;-44
2021/09/09 04:01:30;;;;;;;32.08;24.77;;;;;;;12.00;100.00;100706.94;2615393;36;20414;-45
2021/09/09 04:03:57;;;;;;;34.28;25.73;;;;;;;11.98;100.00;100709.50;2615445;31;20031;-48
2021/09/09 04:06:24;;;;;;;30.13;24.30;;;;;;;11.90;100.00;100711.03;2614769;36;20033;-44
2021/09/09 04:08:51;;;;;;;28.92;22.67;;;;;;;11.87;100.00;100703.25;2614575;36;20061;-46
2021/09/09 04:11:19;;;;;;;32.22;24.00;;;;;;;11.88;100.00;100705.00;2614932;31;20034;-44
2021/09/09 04:13:46;;;;;;;36.33;25.38;;;;;;;11.81;100.00;100703.09;2615006;36;20034;-45
2021/09/09 04:16:13;;;;;;;31.33;24.98;;;;;;;11.79;100.00;100703.94;2616059;31;20503;-49
2021/09/09 04:18:40;;;;;;;29.65;22.75;;;;;;;11.75;100.00;100704.69;2615021;31;20123;-49
2021/09/09 04:21:07;;;;;;;33.67;25.02;;;;;;;11.80;100.00;100703.94;2615011;36;20034;-45
2021/09/09 04:23:34;;;;;;;33.00;25.25;;;;;;;11.79;100.00;100704.78;2614172;36;20065;-45
2021/09/09 04:26:01;;;;;;;32.85;25.48;;;;;;;11.77;100.00;100701.31;2614448;36;20030;-44
2021/09/09 04:28:28;;;;;;;32.65;24.95;;;;;;;11.68;100.00;100707.09;2615135;31;20086;-47
2021/09/09 04:30:56;;;;;;;31.77;24.30;;;;;;;11.68;100.00;100696.84;2615716;31;20035;-53
2021/09/09 04:33:23;;;;;;;32.53;24.88;;;;;;;11.68;100.00;100696.84;2615516;31;20138;-45
2021/09/09 04:35:50;;;;;;;30.02;24.33;;;;;;;11.72;100.00;100693.53;2615387;31;20039;-48
2021/09/09 04:38:17;;;;;;;36.65;25.45;;;;;;;11.71;100.00;100696.94;2614410;36;20038;-45
2021/09/09 04:40:44;;;;;;;37.85;24.60;;;;;;;11.62;100.00;100694.16;2615132;36;20493;-45
2021/09/09 04:43:11;;;;;;;28.85;23.65;;;;;;;11.56;100.00;100688.06;2615276;31;20165;-44
2021/09/09 04:45:38;;;;;;;32.88;24.20;;;;;;;11.60;100.00;100687.25;2615026;36;20061;-46
2021/09/09 04:48:06;;;;;;;29.90;23.20;;;;;;;11.68;100.00;100688.28;2614951;31;20034;-45
2021/09/09 04:50:34;;;;;;;26.55;22.27;;;;;;;11.67;100.00;100691.69;2616634;31;20442;-45
2021/09/09 04:53:03;;;;;;;30.90;23.90;;;;;;;11.64;100.00;100683.94;2613577;36;20053;-47
2021/09/09 04:55:32;;;;;;;28.30;21.83;;;;;;;11.63;100.00;100684.75;2613355;31;20106;-45
2021/09/09 04:58:02;;;;;;;31.50;24.20;;;;;;;11.62;100.00;100677.91;2614306;36;20434;-46
2021/09/09 05:00:32;;;;;;;29.17;22.30;;;;;;;11.63;100.00;100677.06;2614639;36;20030;-45
2021/09/09 05:03:01;;;;;;;30.58;23.92;;;;;;;11.68;100.00;100681.47;2614840;36;20065;-45
2021/09/09 05:05:30;;;;;;;29.88;23.30;;;;;;;11.70;100.00;100681.50;2614853;36;20034;-45
2021/09/09 05:07:59;;;;;;;28.65;21.80;;;;;;;11.68;100.00;100675.47;2614651;36;21012;-46
2021/09/09 05:10:31;;;;;;;31.38;23.42;;;;;;;11.71;100.00;100670.41;2615820;36;20045;-45
2021/09/09 05:13:00;;;;;;;28.40;22.15;;;;;;;11.74;100.00;100657.66;2614989;36;20065;-46
2021/09/09 05:15:29;;;;;;;24.45;21.58;;;;;;;11.80;100.00;100667.16;2615335;36;20038;-44
2021/09/09 05:17:58;;;;;;;29.45;21.48;;;;;;;11.81;100.00;100662.06;2616162;31;20046;-47
2021/09/09 05:20:26;;;;;;;28.73;22.23;;;;;;;11.91;100.00;100661.44;2616175;36;20330;-47
2021/09/09 05:22:55;;;;;;;25.80;20.98;;;;;;;11.94;100.00;100648.69;2615718;31;20523;-45
2021/09/09 05:25:26;;;;;;;25.73;20.70;;;;;;;12.02;100.00;100655.63;2614680;36;20153;-48
2021/09/09 05:27:54;;;;;;;24.48;19.10;;;;;;;12.04;100.00;100649.72;2615031;36;20041;-47
2021/09/09 05:30:22;;;;;;;21.08;18.27;;;;;;;12.15;100.00;100655.91;2615450;36;20030;-45
2021/09/09 05:33:00;;;;;;;23.50;19.20;;;;;;;12.14;100.00;100646.47;2615279;36;20835;-46
2021/09/09 05:35:30;;;;;;;24.55;18.73;;;;;;;12.21;100.00;100656.03;2615435;31;20031;-45
2021/09/09 05:38:00;;;;;;;27.15;18.73;;;;;;;12.25;100.00;100651.81;2615212;36;20546;-45
2021/09/09 05:40:30;;;;;;;23.20;18.48;;;;;;;12.34;100.00;100649.44;2616445;31;20641;-45
2021/09/09 05:43:01;;;;;;;22.77;18.25;;;;;;;12.37;100.00;100653.72;2616299;31;20492;-47
2021/09/09 05:45:31;;;;;;;26.55;19.83;;;;;;;12.45;100.00;100653.03;2615429;36;20040;-47
2021/09/09 05:47:59;;;;;;;27.35;19.00;;;;;;;12.52;100.00;100655.69;2617719;31;20038;-46
2021/09/09 05:50:29;;;;;;;22.35;18.10;;;;;;;12.60;100.00;100660.13;2615363;36;20049;-50
2021/09/09 05:52:58;;;;;;;27.45;17.80;;;;;;;12.71;100.00;100661.19;2616001;36;20120;-45
2021/09/09 05:55:32;;;;;;;26.65;17.33;;;;;;;12.81;100.00;100663.91;2616727;31;20029;-48
2021/09/09 05:58:00;;;;;;;22.45;16.75;;;;;;;12.93;100.00;100661.50;2615460;36;20578;-45
2021/09/09 06:00:31;;;;;;;20.80;16.52;;;;;;;13.06;100.00;100666.00;2615513;31;20402;-46
2021/09/09 06:03:04;;;;;;;21.17;17.25;;;;;;;13.18;100.00;100657.63;2614851;31;20030;-49
2021/09/09 06:05:38;;;;;;;22.35;15.75;;;;;;;13.35;100.00;100658.72;2616502;31;20568;-48
2021/09/09 06:08:07;;;;;;;21.73;15.57;;;;;;;13.59;100.00;100657.34;2616803;31;20041;-46
2021/09/09 06:10:40;;;;;;;22.05;15.13;;;;;;;14.12;100.00;100651.97;2615852;36;20696;-45
2021/09/09 06:13:09;;;;;;;21.02;13.57;;;;;;;14.73;100.00;100648.25;2616511;36;20030;-58
2021/09/09 06:29:00;;;;;;;18.13;10.65;;;;;;;25.81;49.30;100676.63;2613978;36;20034;-53
2021/09/09 06:31:28;;;;;;;23.60;10.35;;;;;;;25.90;48.40;100683.28;2614451;31;20030;-52
2021/09/09 06:33:55;;;;;;;19.30;10.27;;;;;;;27.61;43.08;100684.09;2614538;31;20030;-48
2021/09/09 06:36:22;;;;;;;19.95;9.98;;;;;;;28.31;40.16;100679.13;2613663;36;20042;-54
2021/09/09 06:38:50;;;;;;;19.08;10.60;;;;;;;28.46;38.71;100682.81;2615102;36;20275;-53
2021/09/09 06:41:17;;;;;;;17.13;9.95;;;;;;;29.24;36.28;100678.91;2615687;31;20150;-52
2021/09/09 06:43:45;;;;;;;14.52;9.25;;;;;;;29.38;36.05;100681.66;2615211;31;20061;-56
2021/09/09 06:46:15;;;;;;;14.57;9.32;;;;;;;30.86;33.14;100686.66;2612529;36;20034;-54
2021/09/09 06:48:43;;;;;;;14.95;9.93;;;;;;;28.83;37.24;100679.22;2614434;36;20065;-51
2021/09/09 06:51:13;;;;;;;11.68;9.50;;;;;;;29.72;34.82;100685.16;2614976;31;20073;-50
2021/09/09 06:53:42;;;;;;;14.27;9.30;;;;;;;31.08;31.99;100690.66;2614662;31;20041;-47
2021/09/09 06:56:12;;;;;;;11.90;9.48;;;;;;;31.74;31.08;100691.94;2614886;31;20041;-55
2021/09/09 06:58:43;;;;;;;12.40;9.48;;;;;;;31.40;31.36;100689.59;2615232;36;20030;-49
2021/09/09 07:01:12;;;;;;;11.88;9.02;;;;;;;32.46;29.47;100693.53;2615902;31;20498;-51
2021/09/09 07:03:44;;;;;;;13.65;8.75;;;;;;;32.12;29.13;100698.31;2614313;36;20604;-51
2021/09/09 07:06:15;;;;;;;10.68;8.50;;;;;;;31.65;30.78;100686.25;2615647;31;20187;-48
2021/09/09 07:08:44;;;;;;;10.18;8.25;;;;;;;31.14;30.90;100685.84;2614746;36;20030;-51
2021/09/09 07:11:13;;;;;;;11.27;8.30;;;;;;;27.06;37.18;100669.88;2615035;36;20129;-52
2021/09/09 07:13:43;;;;;;;11.35;8.35;;;;;;;24.98;43.10;100665.59;2614036;36;20042;-49
2021/09/09 07:16:16;;;;;;;9.60;8.60;;;;;;;23.59;46.95;100657.69;2614751;31;20565;-47
2021/09/09 07:18:45;;;;;;;11.57;8.55;;;;;;;22.18;50.76;100651.72;2614788;36;20038;-51
2021/09/09 07:21:18;;;;;;;8.73;7.65;;;;;;;21.68;53.67;100646.69;2619924;31;20038;-51
2021/09/09 07:23:48;;;;;;;11.40;8.27;;;;;;;20.85;55.35;100650.00;2579763;36;2004506;-48
2021/09/09 07:26:16;;;;;;;12.93;8.40;;;;;;;20.71;54.77;100647.63;2615416;36;20034;-49
2021/09/09 07:28:45;;;;;;;11.27;8.82;;;;;;;20.66;55.73;100645.94;2616614;31;20034;-52
2021/09/09 07:31:17;;;;;;;9.02;7.75;;;;;;;20.80;56.15;100638.81;2615395;31;20585;-52
2021/09/09 07:33:46;;;;;;;11.27;8.40;;;;;;;21.45;56.04;100641.97;2614510;36;20053;-52
2021/09/09 07:36:16;;;;;;;12.07;7.78;;;;;;;21.64;53.43;100638.97;2614777;31;20031;-47
2021/09/09 07:38:45;;;;;;;9.68;7.10;;;;;;;20.88;53.49;100641.25;2616045;31;20042;-49
2021/09/09 07:41:18;;;;;;;9.43;7.47;;;;;;;20.53;56.42;100645.31;2615304;31;20522;-51
2021/09/09 07:43:47;;;;;;;12.35;7.80;;;;;;;19.75;57.96;100636.88;2579078;36;2004345;-48
2021/09/09 07:46:19;;;;;;;10.07;7.10;;;;;;;19.49;61.45;100637.16;2615013;31;20031;-52
2021/09/09 07:48:54;;;;;;;10.63;7.45;;;;;;;19.42;62.61;100643.31;2578850;36;2004287;-49
2021/09/09 07:51:23;;;;;;;7.97;6.80;;;;;;;19.22;60.84;100640.06;2614623;31;20085;-50
2021/09/09 07:53:53;;;;;;;13.25;7.47;;;;;;;19.16;58.82;100640.13;2614322;31;20057;-45
2021/09/09 07:56:27;;;;;;;9.85;6.72;;;;;;;19.13;60.51;100641.00;2615699;31;20031;-48
2021/09/09 07:58:57;;;;;;;7.83;6.83;;;;;;;19.16;59.73;100640.13;2615654;36;20054;-46
2021/09/09 08:01:35;;;;;;;9.02;6.70;;;;;;;19.20;59.66;100644.41;2616281;31;20267;-47
2021/09/09 08:04:05;;;;;;;10.52;6.82;;;;;;;19.32;58.64;100649.50;2616238;36;20023;-49
2021/09/09 08:06:34;;;;;;;11.35;6.90;;;;;;;19.72;57.55;100644.69;2616368;36;20031;-53
2021/09/09 08:09:04;;;;;;;7.72;6.72;;;;;;;19.81;57.18;100654.97;2614878;36;20597;-54
2021/09/09 08:11:34;;;;;;;9.60;6.63;;;;;;;20.21;56.29;100657.03;2615476;31;20023;-44
2021/09/09 08:14:03;;;;;;;9.88;7.05;;;;;;;20.10;55.23;100656.31;2615365;36;20118;-45
2021/09/09 08:16:32;;;;;;;9.98;6.70;;;;;;;20.59;53.63;100660.81;2614716;36;20022;-44
2021/09/09 08:19:01;;;;;;;7.88;6.22;;;;;;;21.15;52.85;100658.13;2614674;36;20554;-46
2021/09/09 08:21:30;;;;;;;7.35;6.30;;;;;;;22.44;48.48;100664.16;2614885;36;20038;-48
2021/09/09 08:23:59;;;;;;;9.00;6.85;;;;;;;22.87;47.74;100662.19;2613960;36;20037;-45
2021/09/09 08:26:28;;;;;;;11.60;7.22;;;;;;;21.93;49.50;100664.41;2614883;31;20077;-45
2021/09/09 08:28:57;;;;;;;9.55;6.40;;;;;;;22.44;48.60;100661.56;2616645;31;20348;-48
2021/09/09 08:34:54;;;;;;;;;;;;;;;21.75;51.13;100663.91;2542935;36;2005826;-52
2021/09/09 08:37:23;;;;;;;8.35;6.18;;;;;;;21.09;52.33;100656.50;2617145;31;19957;-50
2021/09/09 08:39:52;;;;;;;11.00;6.68;;;;;;;20.81;56.00;100653.53;2615759;31;20030;-51
2021/09/09 08:42:19;;;;;;;10.60;6.65;;;;;;;20.57;55.87;100652.19;2617184;36;20030;-52
2021/09/09 08:44:48;;;;;;;8.30;7.40;;;;;;;20.51;56.19;100647.06;2618598;36;20030;-56
2021/09/09 08:47:15;;;;;;;10.70;6.97;;;;;;;20.37;57.78;100659.41;2617085;31;20034;-54
2021/09/09 08:49:44;;;;;;;10.48;7.53;;;;;;;20.35;54.67;100662.88;2616340;31;20046;-55
2021/09/09 08:52:15;;;;;;;8.63;7.65;;;;;;;20.30;56.42;100653.44;2615516;36;20030;-50
2021/09/09 08:54:42;;;;;;;7.68;6.63;;;;;;;20.50;56.93;100658.38;2616491;31;20019;-49
2021/09/09 08:57:10;;;;;;;9.65;6.82;;;;;;;20.47;55.70;100653.16;2616840;31;20457;-52
2021/09/09 08:59:37;;;;;;;7.63;6.80;;;;;;;20.64;55.03;100648.59;2616541;31;20037;-53
2021/09/09 09:02:07;;;;;;;10.82;7.18;;;;;;;21.13;55.29;100662.50;2615713;31;20026;-54
2021/09/09 09:04:37;;;;;;;8.48;7.53;;;;;;;21.08;54.53;100650.44;2616775;31;20022;-54
2021/09/09 09:07:07;;;;;;;8.40;7.15;;;;;;;21.26;55.97;100664.88;2615815;31;20026;-54
2021/09/09 09:09:36;;;;;;;9.88;7.03;;;;;;;21.23;55.37;100653.63;2615675;36;20031;-49
2021/09/09 09:12:07;;;;;;;10.20;6.68;;;;;;;21.09;55.92;100653.91;2615505;36;20038;-53
2021/09/09 09:14:37;;;;;;;9.88;6.50;;;;;;;21.28;55.10;100652.66;2616461;31;20035;-49
2021/09/09 09:17:06;;;;;;;8.85;7.45;;;;;;;21.47;58.16;100652.34;2616282;31;20065;-49
2021/09/09 09:19:36;;;;;;;11.70;6.95;;;;;;;21.76;56.38;100651.72;2615851;36;20037;-51
2021/09/09 09:22:12;;;;;;;11.18;7.07;;;;;;;22.23;53.06;100647.25;2616567;31;20589;-53
2021/09/09 09:24:46;;;;;;;9.38;6.40;;;;;;;22.14;52.11;100650.06;2615586;31;20061;-51
2021/09/09 09:27:27;;;;;;;8.25;6.68;;;;;;;22.50;54.57;100649.19;2615512;31;20030;-51
2021/09/09 09:30:14;;;;;;;10.95;6.82;;;;;;;22.47;51.57;100643.22;2579339;31;2004435;-52
2021/09/09 09:32:47;;;;;;;9.80;7.10;;;;;;;22.46;51.81;100647.56;2615594;36;20037;-53
2021/09/09 09:35:18;;;;;;;10.45;7.75;;;;;;;22.31;51.92;100643.56;2615544;36;20066;-50
2021/09/09 09:38:01;;;;;;;9.68;6.93;;;;;;;22.16;51.94;100646.53;2579272;36;2004724;-51
2021/09/09 09:40:49;;;;;;;14.30;7.10;;;;;;;22.06;51.56;100647.63;2615577;36;20057;-51
2021/09/09 09:43:17;;;;;;;13.20;6.88;;;;;;;22.13;52.17;100643.13;2615739;36;20041;-47
2021/09/09 09:45:52;;;;;;;10.27;7.00;;;;;;;22.19;52.36;100638.66;2615835;36;20427;-51
2021/09/09 09:48:33;;;;;;;8.25;6.45;;;;;;;22.36;51.34;100638.25;2579106;36;2004227;-50
2021/09/09 09:51:11;;;;;;;9.75;6.72;;;;;;;23.05;49.82;100650.44;2616181;31;20170;-53
2021/09/09 09:53:39;;;;;;;10.23;6.45;;;;;;;23.09;49.52;100640.78;2616318;31;20047;-53
2021/09/09 09:56:06;;;;;;;8.98;6.55;;;;;;;23.36;50.61;100640.03;2616712;31;20034;-46
2021/09/09 09:58:33;;;;;;;8.95;6.55;;;;;;;24.09;48.93;100642.28;2615899;36;20610;-54
2021/09/09 10:01:02;;;;;;;11.18;6.72;;;;;;;25.23;44.99;100638.53;2616669;31;20036;-54
2021/09/09 10:03:30;;;;;;;8.90;6.68;;;;;;;27.97;39.00;100641.25;2616075;31;20147;-52
2021/09/09 10:06:01;;;;;;;11.85;6.60;;;;;;;31.91;31.34;100652.88;2614412;36;20035;-51
2021/09/09 10:08:29;;;;;;;7.05;6.35;;;;;;;34.68;27.04;100661.94;2614436;31;20030;-52
2021/09/09 10:10:56;;;;;;;9.35;5.75;;;;;;;37.18;24.25;100661.25;2614489;36;20846;-49
2021/09/09 10:13:23;;;;;;;7.90;5.90;;;;;;;35.26;25.83;100643.28;2616395;31;20038;-52
2021/09/09 10:15:51;;;;;;;9.90;6.47;;;;;;;37.26;23.54;100658.75;2613894;36;20057;-53
2021/09/09 10:18:19;;;;;;;8.73;6.75;;;;;;;35.65;25.05;100658.81;2613365;36;20588;-53
2021/09/09 10:20:46;;;;;;;11.25;6.95;;;;;;;34.36;27.92;100645.72;2615843;31;20034;-50
2021/09/09 10:23:16;;;;;;;10.60;6.00;;;;;;;37.15;23.43;100654.31;2615602;31;20053;-50
2021/09/09 10:25:49;;;;;;;9.48;6.18;;;;;;;36.75;23.76;100653.34;2614841;31;20038;-50
2021/09/09 10:31:19;;;;;;;7.05;6.32;;;;;;;40.28;19.39;100658.19;2578042;36;2004335;-49
2021/09/09 10:33:51;;;;;;;7.97;6.47;;;;;;;36.99;23.19;100643.31;2614632;36;20042;-55
2021/09/09 10:36:41;;;;;;;8.95;6.43;;;;;;;39.44;21.08;100643.19;2579766;31;2004221;-55
2021/09/09 10:39:10;;;;;;;8.55;6.40;;;;;;;40.15;20.19;100649.69;2615013;36;20041;-51
2021/09/09 10:41:38;;;;;;;11.60;6.75;;;;;;;39.66;20.24;100641.97;2614703;36;20034;-52
2021/09/09 10:44:10;;;;;;;7.88;6.38;;;;;;;40.53;19.78;100651.19;2615653;31;20031;-51
2021/09/09 10:46:45;;;;;;;7.15;5.90;;;;;;;40.09;19.55;100645.78;2614921;36;20039;-44
2021/09/09 10:49:18;;;;;;;6.82;6.13;;;;;;;42.50;18.13;100650.16;2615629;31;20030;-50
2021/09/09 10:52:06;;;;;;;6.85;5.90;;;;;;;36.15;23.35;100621.88;2614854;36;20026;-44
2021/09/09 10:55:05;;;;;;;7.38;6.32;;;;;;;36.64;23.11;100630.25;2579191;36;2005560;-47
2021/09/09 10:57:34;;;;;;;9.27;6.80;;;;;;;37.51;23.08;100633.41;2579338;31;2004402;-45
2021/09/09 11:00:04;;;;;;;8.77;6.57;;;;;;;38.25;22.06;100634.81;2616247;31;20031;-44
2021/09/09 11:02:35;;;;;;;6.43;5.82;;;;;;;41.55;18.74;100655.00;2616169;31;20030;-48
2021/09/09 11:05:05;;;;;;;8.13;6.13;;;;;;;41.36;18.53;100651.53;2615041;36;20034;-46
2021/09/09 11:07:33;;;;;;;8.40;6.57;;;;;;;41.65;18.32;100651.19;2614714;36;20033;-44
2021/09/09 11:10:04;;;;;;;12.23;6.50;;;;;;;43.59;16.81;100649.53;2616932;31;20035;-49
2021/09/09 11:12:36;;;;;;;6.68;6.18;;;;;;;39.60;20.00;100634.47;2615353;31;20034;-44
2021/09/09 11:15:12;;;;;;;7.40;6.38;;;;;;;41.60;18.58;100647.28;2614721;36;20030;-45
2021/09/09 11:17:40;;;;;;;7.20;6.50;;;;;;;38.50;22.07;100630.72;2614527;36;20589;-49
2021/09/09 11:20:11;;;;;;;6.50;5.88;;;;;;;37.72;22.60;100623.50;2615226;31;20125;-51
2021/09/09 11:22:39;;;;;;;8.43;5.93;;;;;;;35.90;23.92;100623.00;2614570;36;20066;-45
2021/09/09 11:25:24;;;;;;;6.78;5.70;;;;;;;39.49;21.65;100615.94;2614838;36;20130;-48
2021/09/09 11:27:51;;;;;;;7.15;6.25;;;;;;;41.78;18.97;100633.72;2578264;31;2004556;-48
2021/09/09 11:30:18;;;;;;;8.43;6.07;;;;;;;43.09;17.20;100638.13;2614767;36;20038;-51
2021/09/09 11:33:06;;;;;;;6.72;5.90;;;;;;;42.85;18.39;100625.53;2617130;31;20042;-46
2021/09/09 11:35:33;;;;;;;7.03;6.32;;;;;;;44.73;16.09;100621.69;2579699;36;2004311;-47
2021/09/09 11:38:00;;;;;;;10.32;7.00;;;;;;;42.74;18.48;100620.50;2615732;36;20034;-52
2021/09/09 11:40:28;;;;;;;8.98;6.25;;;;;;;40.03;20.33;100613.31;2615874;31;20038;-46